createdAt,value
2019-04-20T00:02:20.654Z,57.94
2019-04-20T00:04:52.491Z,57.35
2019-04-20T00:07:30.923Z,56.90
2019-04-20T00:10:07.575Z,57.15
2019-04-20T00:12:42.338Z,57.10
2019-04-20T00:15:07.015Z,56.83
2019-04-20T00:17:50.834Z,56.63
2019-04-20T00:20:23.557Z,56.49
2019-04-20T00:23:02.098Z,55.98
2019-04-20T00:26:11.109Z,54.82
2019-04-20T00:28:58.877Z,53.68
2019-04-20T00:31:29.755Z,52.86
2019-04-20T00:34:02.766Z,52.58
2019-04-20T00:36:26.260Z,53.24
2019-04-20T00:39:02.663Z,53.82
2019-04-20T00:41:40.816Z,53.61
2019-04-20T00:44:13.262Z,54.00
2019-04-20T00:46:58.729Z,54.11
2019-04-20T00:49:36.246Z,53.80
2019-04-20T00:52:18.679Z,54.04
2019-04-20T00:54:24.304Z,55.45
2019-04-20T00:57:09.282Z,54.77
2019-04-20T00:59:51.410Z,54.99
2019-04-20T01:02:21.043Z,54.14
2019-04-20T01:04:57.825Z,53.21
2019-04-20T01:07:29.836Z,50.84
2019-04-20T01:10:06.974Z,51.09
2019-04-20T01:12:41.019Z,52.24
2019-04-20T01:15:23.654Z,52.34
2019-04-20T01:18:13.875Z,52.67
2019-04-20T01:20:51.455Z,52.84
2019-04-20T01:23:29.132Z,53.22
2019-04-20T01:26:22.515Z,54.14
2019-04-20T01:29:06.697Z,54.04
2019-04-20T01:31:36.351Z,54.56
2019-04-20T01:34:08.380Z,54.73
2019-04-20T01:36:50.424Z,53.75
2019-04-20T01:39:17.989Z,53.07
2019-04-20T01:41:43.465Z,53.85
2019-04-20T01:44:18.875Z,52.66
2019-04-20T01:46:53.275Z,52.15
2019-04-20T01:49:28.759Z,54.30
2019-04-20T01:52:07.529Z,54.32
2019-04-20T01:54:56.700Z,52.14
2019-04-20T01:58:00.605Z,51.55
2019-04-20T02:00:51.199Z,51.16
2019-04-20T02:03:52.477Z,51.47
2019-04-20T02:06:26.556Z,51.43
2019-04-20T02:09:03.170Z,51.47
2019-04-20T02:11:44.701Z,51.87
2019-04-20T02:14:24.966Z,51.74
2019-04-20T02:16:56.576Z,50.93
2019-04-20T02:19:34.623Z,51.10
2019-04-20T02:22:09.919Z,51.62
2019-04-20T02:24:29.919Z,51.55
2019-04-20T02:27:02.503Z,51.46
2019-04-20T02:29:58.214Z,50.95
2019-04-20T02:32:40.174Z,50.97
2019-04-20T02:35:34.618Z,50.94
2019-04-20T02:40:50.742Z,50.68
2019-04-20T02:43:35.846Z,50.43
2019-04-20T02:45:50.569Z,50.30
2019-04-20T02:51:09.974Z,48.32
2019-04-20T02:53:53.816Z,48.90
2019-04-20T02:56:12.312Z,48.38
2019-04-20T02:58:58.071Z,48.26
2019-04-20T03:01:43.528Z,48.75
2019-04-20T03:04:00.771Z,48.75
2019-04-20T03:06:39.850Z,47.58
2019-04-20T03:09:32.485Z,47.44
2019-04-20T03:12:23.871Z,47.30
2019-04-20T03:14:30.694Z,47.09
2019-04-20T03:17:15.316Z,47.29
2019-04-20T03:19:46.454Z,46.92
2019-04-20T03:22:35.046Z,46.53
2019-04-20T03:25:18.157Z,46.20
2019-04-20T03:27:45.981Z,46.23
2019-04-20T03:31:24.939Z,46.01
2019-04-20T03:33:51.010Z,46.07
2019-04-20T03:36:16.124Z,46.26
2019-04-20T03:38:33.046Z,45.75
2019-04-20T03:40:59.179Z,45.80
2019-04-20T03:43:22.167Z,45.25
2019-04-20T03:46:01.462Z,45.01
2019-04-20T03:48:48.348Z,44.78
2019-04-20T03:51:30.637Z,44.69
2019-04-20T03:54:21.857Z,44.73
2019-04-20T03:57:29.289Z,44.60
2019-04-20T04:00:05.133Z,43.68
2019-04-20T04:03:03.531Z,43.17
2019-04-20T04:05:27.498Z,42.81
2019-04-20T04:07:57.999Z,43.00
2019-04-20T04:10:30.497Z,43.39
2019-04-20T04:13:11.857Z,43.67
2019-04-20T04:15:52.031Z,44.34
2019-04-20T04:18:29.143Z,45.23
2019-04-20T04:21:03.001Z,46.07
2019-04-20T04:23:44.468Z,46.63
2019-04-20T04:26:24.556Z,46.98
2019-04-20T04:28:53.430Z,47.15
2019-04-20T04:31:33.373Z,47.29
2019-04-20T04:34:02.626Z,47.01
2019-04-20T04:36:36.080Z,46.56
2019-04-20T04:39:15.391Z,46.84
2019-04-20T04:41:52.294Z,47.16
2019-04-20T04:44:17.702Z,47.31
2019-04-20T04:46:42.619Z,46.91
2019-04-20T04:49:18.342Z,46.94
2019-04-20T04:51:52.017Z,47.23
2019-04-20T04:54:31.635Z,47.44
2019-04-20T04:56:50.842Z,47.18
2019-04-20T04:59:23.527Z,47.76
2019-04-20T05:01:58.391Z,47.82
2019-04-20T05:05:10.606Z,48.08
2019-04-20T05:07:43.876Z,48.04
2019-04-20T05:10:07.455Z,48.76
2019-04-20T05:12:40.929Z,49.50
2019-04-20T05:15:31.061Z,50.24
2019-04-20T05:18:42.777Z,50.62
2019-04-20T05:21:24.490Z,51.25
2019-04-20T05:24:04.504Z,52.58
2019-04-20T05:27:01.521Z,52.90
2019-04-20T05:29:17.084Z,53.62
2019-04-20T05:31:51.866Z,52.89
2019-04-20T05:34:38.765Z,52.48
2019-04-20T05:37:24.055Z,53.24
2019-04-20T05:39:45.391Z,52.82
2019-04-20T05:42:23.147Z,53.56
2019-04-20T05:44:55.959Z,54.76
2019-04-20T05:47:27.007Z,52.34
2019-04-20T05:49:57.082Z,51.40
2019-04-20T05:52:42.666Z,53.40
2019-04-20T05:55:12.567Z,54.00
2019-04-20T05:57:46.903Z,54.71
2019-04-20T06:00:19.185Z,55.13
2019-04-20T06:02:52.506Z,55.58
2019-04-20T06:05:28.826Z,55.75
2019-04-20T06:08:03.479Z,55.96
2019-04-20T06:10:38.429Z,56.48
2019-04-20T06:13:08.994Z,55.71
2019-04-20T06:15:53.958Z,55.46
2019-04-20T06:18:28.366Z,55.81
2019-04-20T06:21:13.646Z,55.70
2019-04-20T06:24:06.637Z,55.81
2019-04-20T06:29:04.249Z,53.74
2019-04-20T06:31:45.913Z,53.11
2019-04-20T06:34:33.047Z,50.38
2019-04-20T06:39:40.619Z,48.68
2019-04-20T06:42:15.238Z,44.71
2019-04-20T06:44:41.184Z,43.66
2019-04-20T06:47:22.795Z,39.90
2019-04-20T06:49:53.604Z,37.80
2019-04-20T06:52:45.408Z,35.51
2019-04-20T06:55:15.728Z,33.27
2019-04-20T06:57:45.047Z,31.67
2019-04-20T07:00:35.106Z,30.50
2019-04-20T07:02:53.903Z,28.96
2019-04-20T07:05:48.982Z,28.22
2019-04-20T07:08:15.592Z,26.77
2019-04-20T07:10:40.734Z,28.35
2019-04-20T07:13:06.217Z,26.97
2019-04-20T07:15:54.484Z,25.25
2019-04-20T07:18:35.262Z,25.29
2019-04-20T07:21:16.090Z,23.88
2019-04-20T07:23:59.070Z,22.35
2019-04-20T07:26:29.213Z,21.96
2019-04-20T07:29:00.718Z,21.29
2019-04-20T07:31:32.056Z,20.72
2019-04-20T07:34:10.483Z,20.87
2019-04-20T07:36:45.816Z,20.29
2019-04-20T07:39:21.601Z,19.82
2019-04-20T07:41:54.598Z,19.17
2019-04-20T07:44:36.358Z,18.94
2019-04-20T07:47:07.671Z,18.64
2019-04-20T07:49:35.754Z,18.49
2019-04-20T07:51:50.625Z,18.04
2019-04-20T07:54:46.934Z,19.12
2019-04-20T07:57:14.338Z,19.78
2019-04-20T07:59:50.908Z,19.68
2019-04-20T08:02:57.397Z,18.96
2019-04-20T08:05:39.180Z,18.15
2019-04-20T08:08:18.039Z,18.59
2019-04-20T08:10:54.404Z,18.26
2019-04-20T08:16:06.719Z,16.72
2019-04-20T08:18:41.607Z,16.09
2019-04-20T08:21:12.973Z,16.44
2019-04-20T08:23:58.169Z,16.93
2019-04-20T08:26:11.293Z,15.50
2019-04-20T08:28:48.604Z,16.05
2019-04-20T08:31:35.903Z,15.13
2019-04-20T08:34:27.649Z,13.58
2019-04-20T08:36:57.359Z,13.34
2019-04-20T08:39:48.163Z,12.82
2019-04-20T08:42:08.807Z,12.96
2019-04-20T08:47:30.572Z,11.61
2019-04-20T08:50:19.834Z,11.17
2019-04-20T08:53:08.918Z,11.22
2019-04-20T08:55:23.487Z,11.02
2019-04-20T08:57:39.966Z,10.66
2019-04-20T09:00:13.257Z,11.13
2019-04-20T09:02:55.600Z,10.96
2019-04-20T09:05:36.893Z,11.04
2019-04-20T09:08:09.289Z,10.97
2019-04-20T09:10:49.537Z,11.91
2019-04-20T09:13:19.757Z,12.55
2019-04-20T09:15:42.545Z,12.15
2019-04-20T09:18:27.176Z,11.04
2019-04-20T09:21:01.138Z,11.02
2019-04-20T09:23:45.678Z,11.17
2019-04-20T09:26:29.733Z,11.03
2019-04-20T09:29:01.677Z,11.00
2019-04-20T09:31:43.739Z,12.45
2019-04-20T09:34:34.030Z,14.08
2019-04-20T09:37:36.931Z,12.66
2019-04-20T09:40:28.143Z,12.00
2019-04-20T09:42:54.016Z,11.05
2019-04-20T09:45:47.607Z,11.08
2019-04-20T09:48:25.244Z,11.23
2019-04-20T09:51:12.782Z,10.20
2019-04-20T09:53:39.050Z,9.82
2019-04-20T09:56:18.139Z,10.90
2019-04-20T09:58:55.243Z,10.32
2019-04-20T10:01:19.035Z,10.58
2019-04-20T10:03:44.980Z,10.07
2019-04-20T10:06:23.077Z,10.04
2019-04-20T10:08:56.036Z,10.14
2019-04-20T10:11:25.568Z,11.70
2019-04-20T10:13:58.522Z,11.27
2019-04-20T10:16:31.507Z,11.32
2019-04-20T10:19:04.914Z,12.28
2019-04-20T10:21:38.273Z,12.63
2019-04-20T10:24:10.627Z,13.21
2019-04-20T10:26:42.848Z,13.73
2019-04-20T10:29:15.454Z,12.87
2019-04-20T10:31:54.669Z,13.24
2019-04-20T10:34:24.010Z,13.26
2019-04-20T10:37:15.929Z,14.33
2019-04-20T10:39:48.749Z,15.57
2019-04-20T10:42:21.155Z,16.27
2019-04-20T10:44:56.707Z,16.01
2019-04-20T10:47:27.389Z,15.41
2019-04-20T10:49:59.349Z,17.28
2019-04-20T10:52:32.009Z,16.28
2019-04-20T10:55:08.274Z,17.18
2019-04-20T10:57:41.756Z,17.55
2019-04-20T11:00:17.521Z,17.98
2019-04-20T11:02:51.258Z,18.33
2019-04-20T11:05:24.473Z,16.79
2019-04-20T11:07:59.914Z,17.21
2019-04-20T11:10:49.385Z,15.83
2019-04-20T11:13:09.523Z,16.74
2019-04-20T11:15:42.223Z,16.99
2019-04-20T11:18:15.491Z,17.73
2019-04-20T11:20:49.113Z,18.52
2019-04-20T11:23:24.339Z,17.91
2019-04-20T11:25:58.309Z,17.59
2019-04-20T11:28:30.411Z,16.93
2019-04-20T11:31:03.966Z,17.87
2019-04-20T11:33:40.403Z,18.21
2019-04-20T11:36:13.005Z,18.28
2019-04-20T11:38:45.100Z,18.57
2019-04-20T11:41:23.781Z,18.63
2019-04-20T11:43:53.782Z,18.76
2019-04-20T11:46:26.945Z,18.76
2019-04-20T11:49:01.337Z,20.00
2019-04-20T11:51:37.314Z,20.32
2019-04-20T11:54:10.446Z,20.20
2019-04-20T11:56:46.392Z,20.54
2019-04-20T11:59:16.949Z,21.90
2019-04-20T12:02:00.953Z,22.98
2019-04-20T12:04:45.478Z,23.43
2019-04-20T12:07:11.118Z,24.73
2019-04-20T12:09:43.788Z,25.55
2019-04-20T12:12:27.261Z,25.22
2019-04-20T12:14:50.544Z,25.23
2019-04-20T12:17:23.762Z,24.92
2019-04-20T12:19:55.880Z,25.43
2019-04-20T12:22:28.307Z,26.52
2019-04-20T12:25:02.548Z,25.29
2019-04-20T12:27:36.655Z,25.62
2019-04-20T12:30:09.970Z,26.12
2019-04-20T12:32:47.787Z,26.94
2019-04-20T12:35:18.153Z,27.14
2019-04-20T12:37:52.401Z,24.96
2019-04-20T12:40:25.823Z,25.08
2019-04-20T12:43:02.069Z,26.18
2019-04-20T12:45:35.666Z,25.98
2019-04-20T12:48:08.089Z,25.52
2019-04-20T12:50:41.527Z,25.64
2019-04-20T12:53:14.810Z,26.00
2019-04-20T12:55:50.584Z,25.85
2019-04-20T12:58:23.001Z,26.77
2019-04-20T13:00:56.335Z,26.05
2019-04-20T13:03:29.767Z,25.78
2019-04-20T13:06:03.808Z,26.87
2019-04-20T13:08:42.206Z,26.39
2019-04-20T13:11:22.810Z,26.64
2019-04-20T13:14:38.577Z,25.83
2019-04-20T13:17:14.886Z,26.24
2019-04-20T13:19:47.137Z,26.46
2019-04-20T13:22:19.553Z,25.93
2019-04-20T13:24:52.713Z,25.68
2019-04-20T13:27:27.048Z,25.16
2019-04-20T13:30:00.745Z,25.37
2019-04-20T13:32:36.478Z,25.70
2019-04-20T13:35:10.059Z,25.62
2019-04-20T13:37:44.020Z,25.33
2019-04-20T13:40:17.743Z,25.04
2019-04-20T13:42:49.924Z,25.97
2019-04-20T13:45:22.302Z,25.56
2019-04-20T13:47:55.108Z,25.19
2019-04-20T13:50:29.853Z,24.68
2019-04-20T13:53:03.255Z,25.36
2019-04-20T13:55:36.001Z,23.30
2019-04-20T13:58:13.887Z,23.69
2019-04-20T14:01:03.051Z,23.26
2019-04-20T14:03:36.573Z,23.70
2019-04-20T14:06:10.952Z,23.52
2019-04-20T14:08:45.304Z,23.53
2019-04-20T14:11:17.797Z,24.46
2019-04-20T14:13:55.364Z,23.72
2019-04-20T14:16:25.030Z,22.07
2019-04-20T14:18:58.702Z,22.20
2019-04-20T14:21:38.414Z,23.22
2019-04-20T14:24:10.958Z,22.91
2019-04-20T14:26:44.568Z,23.14
2019-04-20T14:29:17.169Z,23.48
2019-04-20T14:31:50.033Z,23.27
2019-04-20T14:34:24.737Z,23.16
2019-04-20T14:36:57.098Z,24.60
2019-04-20T14:39:30.267Z,23.77
2019-04-20T14:42:04.472Z,23.54
2019-04-20T14:44:37.491Z,22.49
2019-04-20T14:47:09.867Z,22.67
2019-04-20T14:49:42.998Z,22.11
2019-04-20T14:52:15.927Z,21.44
2019-04-20T14:54:47.930Z,22.98
2019-04-20T14:57:23.412Z,22.82
2019-04-20T15:00:01.268Z,22.71
2019-04-20T15:02:36.193Z,22.92
2019-04-20T15:05:09.028Z,22.55
2019-04-20T15:07:41.052Z,22.54
2019-04-20T15:10:13.154Z,23.06
2019-04-20T15:12:52.549Z,24.12
2019-04-20T15:15:20.702Z,22.88
2019-04-20T15:18:05.833Z,24.39
2019-04-20T15:20:41.646Z,22.51
2019-04-20T15:23:25.734Z,23.66
2019-04-20T15:26:00.735Z,23.30
2019-04-20T15:28:32.730Z,23.99
2019-04-20T15:31:06.010Z,23.46
2019-04-20T15:33:39.106Z,23.98
2019-04-20T15:36:11.474Z,24.58
2019-04-20T15:38:43.514Z,24.94
2019-04-20T15:41:16.861Z,24.03
2019-04-20T15:43:49.394Z,23.62
2019-04-20T15:46:21.806Z,23.82
2019-04-20T15:48:53.883Z,23.65
2019-04-20T15:51:25.910Z,23.60
2019-04-20T15:53:58.053Z,24.61
2019-04-20T15:56:30.219Z,23.81
2019-04-20T15:59:04.264Z,23.48
2019-04-20T16:01:45.077Z,24.54
2019-04-20T16:04:39.041Z,24.32
2019-04-20T16:07:10.893Z,23.68
2019-04-20T16:09:44.332Z,24.09
2019-04-20T16:12:17.261Z,24.01
2019-04-20T16:14:51.735Z,24.31
2019-04-20T16:17:32.776Z,24.47
2019-04-20T16:20:06.198Z,24.20
2019-04-20T16:22:36.726Z,24.09
2019-04-20T16:25:23.489Z,24.09
2019-04-20T16:27:56.125Z,23.77
2019-04-20T16:30:31.711Z,24.41
2019-04-20T16:33:04.392Z,24.34
2019-04-20T16:35:36.438Z,23.34
2019-04-20T16:38:10.718Z,24.46
2019-04-20T16:40:44.357Z,24.35
2019-04-20T16:43:24.439Z,24.01
2019-04-20T16:45:50.990Z,23.98
2019-04-20T16:48:26.233Z,24.82
2019-04-20T16:50:58.715Z,23.97
2019-04-20T16:53:32.938Z,24.23
2019-04-20T16:56:06.606Z,25.05
2019-04-20T16:58:39.976Z,25.98
2019-04-20T17:01:12.060Z,25.98
2019-04-20T17:03:57.842Z,26.75
2019-04-20T17:06:20.589Z,27.81
2019-04-20T17:08:52.928Z,27.81
2019-04-20T17:11:27.615Z,27.67
2019-04-20T17:14:01.690Z,27.18
2019-04-20T17:16:35.621Z,27.04
2019-04-20T17:19:09.991Z,27.54
2019-04-20T17:21:42.456Z,27.44
2019-04-20T17:24:17.464Z,28.00
2019-04-20T17:27:05.301Z,27.76
2019-04-20T17:29:48.597Z,28.40
2019-04-20T17:32:23.533Z,28.90
2019-04-20T17:35:09.113Z,29.77
2019-04-20T17:37:33.723Z,29.71
2019-04-20T17:40:27.025Z,29.95
2019-04-20T17:42:50.872Z,29.90
2019-04-20T17:45:24.805Z,30.05
2019-04-20T17:48:03.245Z,29.48
2019-04-20T17:53:59.905Z,29.76
2019-04-20T17:56:30.695Z,30.03
2019-04-20T17:59:04.527Z,30.43
2019-04-20T18:02:09.066Z,34.17
2019-04-20T18:04:56.944Z,34.90
2019-04-20T18:07:28.421Z,35.50
2019-04-20T18:09:58.899Z,36.06
2019-04-20T18:12:23.156Z,36.17
2019-04-20T18:15:08.089Z,36.48
2019-04-20T18:17:54.690Z,36.49
2019-04-20T18:20:32.625Z,36.70
2019-04-20T18:23:06.573Z,36.43
2019-04-20T18:26:04.768Z,36.27
2019-04-20T18:28:26.443Z,36.38
2019-04-20T18:31:09.111Z,37.36
2019-04-20T18:33:44.472Z,38.39
2019-04-20T18:36:23.367Z,38.75
2019-04-20T18:38:57.393Z,39.48
2019-04-20T18:41:34.927Z,39.71
2019-04-20T18:44:02.641Z,40.56
2019-04-20T18:47:00.431Z,41.18
2019-04-20T18:49:23.740Z,40.98
2019-04-20T18:51:43.845Z,41.07
2019-04-20T18:54:21.344Z,41.16
2019-04-20T18:56:52.541Z,41.36
2019-04-20T18:59:35.182Z,41.73
2019-04-20T19:15:58.700Z,45.26
2019-04-20T19:32:05.769Z,47.38
2019-04-20T19:34:39.237Z,47.91
2019-04-20T19:37:03.864Z,48.13
2019-04-20T19:39:47.434Z,48.47
2019-04-20T19:42:18.124Z,48.11
2019-04-20T19:44:53.257Z,48.50
2019-04-20T19:47:32.370Z,49.13
2019-04-20T19:50:10.966Z,49.67
2019-04-20T19:52:44.820Z,49.55
2019-04-20T19:55:10.511Z,49.82
2019-04-20T19:57:45.511Z,50.09
2019-04-20T20:00:06.373Z,51.05
2019-04-20T20:02:41.469Z,51.31
2019-04-20T20:05:17.572Z,51.79
2019-04-20T20:07:52.735Z,52.03
2019-04-20T20:10:30.218Z,52.33
2019-04-20T20:13:00.664Z,52.40
2019-04-20T20:15:34.319Z,52.66
2019-04-20T20:18:27.421Z,52.82
2019-04-20T20:20:55.440Z,53.15
2019-04-20T20:23:14.447Z,54.76
2019-04-20T20:25:49.644Z,55.06
2019-04-20T20:28:30.504Z,55.79
2019-04-20T20:31:05.997Z,56.26
2019-04-20T20:33:43.843Z,57.21
2019-04-20T20:36:11.823Z,56.87
2019-04-20T20:38:43.705Z,56.22
2019-04-20T20:41:21.809Z,56.13
2019-04-20T20:43:57.668Z,56.31
2019-04-20T20:46:30.643Z,57.01
2019-04-20T20:49:09.422Z,57.71
2019-04-20T20:51:49.845Z,58.08
2019-04-20T20:54:11.337Z,58.20
2019-04-20T20:56:48.680Z,59.35
2019-04-20T20:59:25.745Z,60.39
2019-04-20T21:01:52.396Z,60.27
2019-04-20T21:04:21.672Z,60.03
2019-04-20T21:06:55.890Z,60.31
2019-04-20T21:09:31.228Z,60.10
2019-04-20T21:12:09.144Z,61.01
2019-04-20T21:14:40.562Z,61.62
2019-04-20T21:17:17.923Z,63.07
2019-04-20T21:20:03.503Z,63.29
2019-04-20T21:22:43.548Z,63.73
2019-04-20T21:24:56.872Z,63.71
2019-04-20T21:27:29.785Z,63.60
2019-04-20T21:30:03.997Z,63.69
2019-04-20T21:32:44.171Z,64.14
2019-04-20T21:35:15.613Z,64.57
2019-04-20T21:37:51.234Z,64.73
2019-04-20T21:40:31.542Z,65.04
2019-04-20T21:43:05.076Z,65.42
2019-04-20T21:45:37.215Z,65.83
2019-04-20T21:48:12.788Z,66.16
2019-04-20T21:50:59.801Z,66.85
2019-04-20T21:53:20.363Z,67.66
2019-04-20T21:55:50.141Z,68.10
2019-04-20T21:58:27.745Z,68.25
2019-04-20T22:01:09.551Z,68.07
2019-04-20T22:03:34.218Z,67.82
2019-04-20T22:06:08.992Z,68.25
2019-04-20T22:08:47.987Z,68.71
2019-04-20T22:11:15.808Z,69.00
2019-04-20T22:13:53.376Z,69.09
2019-04-20T22:16:41.704Z,69.17
2019-04-20T22:19:25.031Z,69.05
2019-04-20T22:21:59.427Z,68.49
2019-04-20T22:24:39.902Z,68.20
2019-04-20T22:27:05.013Z,68.17
2019-04-20T22:29:28.076Z,68.01
2019-04-20T22:32:06.267Z,67.72
2019-04-20T22:35:12.599Z,67.99
2019-04-20T22:38:07.024Z,68.44
2019-04-20T22:40:36.704Z,67.84
2019-04-20T22:43:10.367Z,68.21
2019-04-20T22:45:47.364Z,68.96
2019-04-20T22:48:19.287Z,68.96
2019-04-20T22:51:12.326Z,69.20
2019-04-20T22:53:36.496Z,69.60
2019-04-20T22:56:21.141Z,69.74
2019-04-20T22:58:43.267Z,69.49
2019-04-20T23:01:19.342Z,69.08
2019-04-20T23:03:41.119Z,69.19
2019-04-20T23:06:20.782Z,69.75
2019-04-20T23:08:59.521Z,69.77
2019-04-20T23:11:31.495Z,69.81
2019-04-20T23:14:02.372Z,69.82
2019-04-20T23:16:43.196Z,69.74
2019-04-20T23:19:10.407Z,70.10
2019-04-20T23:21:49.609Z,70.06
2019-04-20T23:24:19.863Z,69.84
2019-04-20T23:26:53.166Z,70.65
2019-04-20T23:29:29.578Z,71.45
2019-04-20T23:32:04.450Z,71.43
2019-04-20T23:34:34.598Z,71.50
2019-04-20T23:37:24.580Z,72.16
2019-04-20T23:39:52.407Z,72.25
2019-04-20T23:42:33.670Z,72.15
2019-04-20T23:45:45.622Z,71.23
2019-04-20T23:48:33.702Z,70.65
2019-04-20T23:51:29.994Z,70.28
2019-04-20T23:53:51.168Z,69.89
2019-04-20T23:56:18.410Z,69.32
2019-04-20T23:58:51.832Z,67.12
